Nearby METAR Reports

 

LELL - Sabadell, Spain
Distance from station: ONO 14km
Actualización: 09/12/2022 12:30
Few Clouds
Few Clouds
 Viento del O
Viento: O 13 km/h
Temperatura: 17°C
Rocío: 10°C
Humedad: 64%
Barómetro: 1000 hPa
Clouds: Few Clouds
Visibilidad: 10 km
Cloud details: Few Clouds 914 m
2022/12/09 11:30 LELL 091130Z 26007KT 190V300 9999 FEW030 17/10 Q1000
LEBL - Barcelona Airpor, Spain
Distance from station: SO 25km
Actualización: 09/12/2022 12:30
Despejado
Despejado
 Viento del O
Viento: O 22 km/h
Temperatura: 18°C
Rocío: 9°C
Humedad: 56%
Barómetro: 1000 hPa
Resumen: Despejado
Visibilidad: greater than 10 km
2022/12/09 11:30 LEBL 091130Z 26012KT CAVOK 18/09 Q1000 NOSIG
 
LEGE - Gerona/Costa Bra, Spain
Distance from station: NE 65km
Actualización: 09/12/2022 12:30
Despejado
Despejado
 Viento del NE
Viento: NE 11 km/h
Temperatura: 18°C
Rocío: 10°C
Humedad: 60%
Barómetro: 998 hPa
Resumen: Despejado
Visibilidad: greater than 10 km
2022/12/09 11:30 LEGE 091130Z 05006KT 350V080 CAVOK 18/10 Q0998
LERS - Reus (civ/Mil), Spain
Distance from station: OSO 96km
Actualización: 09/12/2022 12:30
Few Clouds
Few Clouds
 Viento del OSO
Viento: OSO 24 km/h
Temperatura: 18°C
Rocío: 9°C
Humedad: 56%
Barómetro: 1000 hPa
Clouds: Few Clouds
Visibilidad: 10 km
Cloud details: Few Clouds 1219 m
2022/12/09 11:30 LERS 091130Z 25013KT 9999 FEW040 18/09 Q1000